sensor_id;sensor_type;location;lat;lon;timestamp;P1;durP1;ratioP1;P2;durP2;ratioP2
3995;SDS011;2012;49.794;9.722;2023-04-02T00:02:54;1.33;;;0.90;;
3995;SDS011;2012;49.794;9.722;2023-04-02T00:07:58;1.27;;;0.93;;
3995;SDS011;2012;49.794;9.722;2023-04-02T00:15:38;1.57;;;0.80;;
3995;SDS011;2012;49.794;9.722;2023-04-02T00:18:06;1.40;;;0.93;;
3995;SDS011;2012;49.794;9.722;2023-04-02T00:20:39;2.30;;;0.90;;
3995;SDS011;2012;49.794;9.722;2023-04-02T00:23:11;3.73;;;1.10;;
3995;SDS011;2012;49.794;9.722;2023-04-02T00:25:40;1.37;;;1.20;;
3995;SDS011;2012;49.794;9.722;2023-04-02T00:28:14;1.17;;;1.07;;
3995;SDS011;2012;49.794;9.722;2023-04-02T00:30:48;1.13;;;0.90;;
3995;SDS011;2012;49.794;9.722;2023-04-02T00:33:20;1.07;;;0.97;;
3995;SDS011;2012;49.794;9.722;2023-04-02T00:35:49;1.70;;;1.30;;
3995;SDS011;2012;49.794;9.722;2023-04-02T00:38:25;3.77;;;1.20;;
3995;SDS011;2012;49.794;9.722;2023-04-02T00:40:56;1.20;;;0.90;;
3995;SDS011;2012;49.794;9.722;2023-04-02T00:43:28;1.37;;;1.17;;
3995;SDS011;2012;49.794;9.722;2023-04-02T00:45:58;1.43;;;1.10;;
3995;SDS011;2012;49.794;9.722;2023-04-02T00:50:59;1.73;;;1.00;;
3995;SDS011;2012;49.794;9.722;2023-04-02T00:53:34;3.27;;;1.13;;
3995;SDS011;2012;49.794;9.722;2023-04-02T00:56:02;2.73;;;2.00;;
3995;SDS011;2012;49.794;9.722;2023-04-02T00:58:38;1.13;;;1.07;;
3995;SDS011;2012;49.794;9.722;2023-04-02T01:01:14;1.07;;;0.97;;
3995;SDS011;2012;49.794;9.722;2023-04-02T01:03:42;4.77;;;0.97;;
3995;SDS011;2012;49.794;9.722;2023-04-02T01:06:31;2.07;;;1.00;;
3995;SDS011;2012;49.794;9.722;2023-04-02T01:17:16;1.40;;;0.90;;
3995;SDS011;2012;49.794;9.722;2023-04-02T01:25:18;1.53;;;1.20;;
3995;SDS011;2012;49.794;9.722;2023-04-02T01:27:51;1.53;;;1.43;;
3995;SDS011;2012;49.794;9.722;2023-04-02T01:30:32;1.87;;;1.30;;
3995;SDS011;2012;49.794;9.722;2023-04-02T01:33:01;1.30;;;1.20;;
3995;SDS011;2012;49.794;9.722;2023-04-02T01:35:29;1.30;;;1.20;;
3995;SDS011;2012;49.794;9.722;2023-04-02T01:38:07;1.90;;;1.33;;
3995;SDS011;2012;49.794;9.722;2023-04-02T01:40:43;2.80;;;1.00;;
3995;SDS011;2012;49.794;9.722;2023-04-02T01:43:22;1.47;;;1.37;;
3995;SDS011;2012;49.794;9.722;2023-04-02T01:45:57;3.00;;;1.20;;
3995;SDS011;2012;49.794;9.722;2023-04-02T01:48:28;1.83;;;1.30;;
3995;SDS011;2012;49.794;9.722;2023-04-02T01:50:56;2.43;;;0.97;;
3995;SDS011;2012;49.794;9.722;2023-04-02T01:53:27;1.53;;;1.17;;
3995;SDS011;2012;49.794;9.722;2023-04-02T01:55:57;4.33;;;1.47;;
3995;SDS011;2012;49.794;9.722;2023-04-02T01:58:27;1.40;;;1.30;;
3995;SDS011;2012;49.794;9.722;2023-04-02T02:01:00;1.60;;;1.13;;
3995;SDS011;2012;49.794;9.722;2023-04-02T02:03:35;2.13;;;1.30;;
3995;SDS011;2012;49.794;9.722;2023-04-02T02:06:04;3.40;;;2.70;;
3995;SDS011;2012;49.794;9.722;2023-04-02T02:08:33;2.93;;;2.40;;
3995;SDS011;2012;49.794;9.722;2023-04-02T02:11:21;3.57;;;2.20;;
3995;SDS011;2012;49.794;9.722;2023-04-02T02:13:51;10.60;;;4.30;;
3995;SDS011;2012;49.794;9.722;2023-04-02T02:16:26;2.23;;;2.03;;
3995;SDS011;2012;49.794;9.722;2023-04-02T02:18:56;1.70;;;1.60;;
3995;SDS011;2012;49.794;9.722;2023-04-02T02:21:29;1.17;;;1.07;;
3995;SDS011;2012;49.794;9.722;2023-04-02T02:24:51;2.60;;;1.83;;
3995;SDS011;2012;49.794;9.722;2023-04-02T02:27:05;2.57;;;2.10;;
3995;SDS011;2012;49.794;9.722;2023-04-02T02:32:46;1.70;;;1.60;;
3995;SDS011;2012;49.794;9.722;2023-04-02T02:35:23;3.73;;;1.30;;
3995;SDS011;2012;49.794;9.722;2023-04-02T02:40:59;2.77;;;1.20;;
3995;SDS011;2012;49.794;9.722;2023-04-02T02:43:37;1.70;;;1.60;;
3995;SDS011;2012;49.794;9.722;2023-04-02T02:46:07;1.73;;;1.53;;
3995;SDS011;2012;49.794;9.722;2023-04-02T02:48:39;4.77;;;2.00;;
3995;SDS011;2012;49.794;9.722;2023-04-02T02:51:22;1.40;;;1.30;;
3995;SDS011;2012;49.794;9.722;2023-04-02T02:53:57;3.33;;;1.90;;
3995;SDS011;2012;49.794;9.722;2023-04-02T02:56:29;1.40;;;1.30;;
3995;SDS011;2012;49.794;9.722;2023-04-02T02:58:59;1.60;;;1.50;;
3995;SDS011;2012;49.794;9.722;2023-04-02T03:01:31;1.20;;;1.10;;
3995;SDS011;2012;49.794;9.722;2023-04-02T03:04:02;1.40;;;1.13;;
3995;SDS011;2012;49.794;9.722;2023-04-02T03:06:29;1.40;;;1.30;;
3995;SDS011;2012;49.794;9.722;2023-04-02T03:09:03;1.10;;;1.00;;
3995;SDS011;2012;49.794;9.722;2023-04-02T03:11:57;3.00;;;1.43;;
3995;SDS011;2012;49.794;9.722;2023-04-02T03:14:33;3.13;;;1.00;;
3995;SDS011;2012;49.794;9.722;2023-04-02T03:20:07;3.27;;;2.23;;
3995;SDS011;2012;49.794;9.722;2023-04-02T03:23:28;1.20;;;0.90;;
3995;SDS011;2012;49.794;9.722;2023-04-02T03:25:41;1.83;;;1.30;;
3995;SDS011;2012;49.794;9.722;2023-04-02T03:28:17;1.23;;;1.10;;
3995;SDS011;2012;49.794;9.722;2023-04-02T03:30:50;1.60;;;1.20;;
3995;SDS011;2012;49.794;9.722;2023-04-02T03:36:15;2.60;;;1.40;;
3995;SDS011;2012;49.794;9.722;2023-04-02T03:38:46;2.20;;;1.30;;
3995;SDS011;2012;49.794;9.722;2023-04-02T03:44:37;1.07;;;1.07;;
3995;SDS011;2012;49.794;9.722;2023-04-02T03:47:15;2.00;;;1.43;;
3995;SDS011;2012;49.794;9.722;2023-04-02T03:49:49;3.27;;;1.10;;
3995;SDS011;2012;49.794;9.722;2023-04-02T03:52:26;1.17;;;1.07;;
3995;SDS011;2012;49.794;9.722;2023-04-02T03:54:58;5.00;;;1.23;;
3995;SDS011;2012;49.794;9.722;2023-04-02T03:57:33;2.10;;;1.17;;
3995;SDS011;2012;49.794;9.722;2023-04-02T04:02:51;2.63;;;1.40;;
3995;SDS011;2012;49.794;9.722;2023-04-02T04:05:29;1.50;;;1.00;;
3995;SDS011;2012;49.794;9.722;2023-04-02T04:08:02;1.07;;;0.97;;
3995;SDS011;2012;49.794;9.722;2023-04-02T04:10:39;1.20;;;1.13;;
3995;SDS011;2012;49.794;9.722;2023-04-02T04:13:11;1.73;;;1.17;;
3995;SDS011;2012;49.794;9.722;2023-04-02T04:15:53;2.97;;;1.30;;
3995;SDS011;2012;49.794;9.722;2023-04-02T04:18:34;3.90;;;1.23;;
3995;SDS011;2012;49.794;9.722;2023-04-02T04:21:13;2.47;;;1.17;;
3995;SDS011;2012;49.794;9.722;2023-04-02T04:23:46;1.33;;;1.10;;
3995;SDS011;2012;49.794;9.722;2023-04-02T04:26:22;2.53;;;2.33;;
3995;SDS011;2012;49.794;9.722;2023-04-02T04:31:47;1.50;;;1.40;;
3995;SDS011;2012;49.794;9.722;2023-04-02T04:34:19;1.93;;;1.60;;
3995;SDS011;2012;49.794;9.722;2023-04-02T04:36:52;2.33;;;1.17;;
3995;SDS011;2012;49.794;9.722;2023-04-02T04:39:32;2.90;;;1.37;;
3995;SDS011;2012;49.794;9.722;2023-04-02T04:42:06;2.43;;;1.40;;
3995;SDS011;2012;49.794;9.722;2023-04-02T04:44:51;1.57;;;1.40;;
3995;SDS011;2012;49.794;9.722;2023-04-02T04:47:48;1.00;;;1.00;;
3995;SDS011;2012;49.794;9.722;2023-04-02T04:53:06;2.80;;;1.27;;
3995;SDS011;2012;49.794;9.722;2023-04-02T04:55:43;4.70;;;1.70;;
3995;SDS011;2012;49.794;9.722;2023-04-02T04:58:22;1.33;;;1.23;;
3995;SDS011;2012;49.794;9.722;2023-04-02T05:04:02;1.50;;;1.40;;
3995;SDS011;2012;49.794;9.722;2023-04-02T05:06:39;3.63;;;1.47;;
3995;SDS011;2012;49.794;9.722;2023-04-02T05:12:26;10.73;;;4.03;;
3995;SDS011;2012;49.794;9.722;2023-04-02T05:15:04;8.60;;;4.53;;
3995;SDS011;2012;49.794;9.722;2023-04-02T05:17:49;8.40;;;5.10;;
3995;SDS011;2012;49.794;9.722;2023-04-02T05:20:25;22.80;;;11.17;;
3995;SDS011;2012;49.794;9.722;2023-04-02T05:23:17;21.47;;;11.63;;
3995;SDS011;2012;49.794;9.722;2023-04-02T05:31:15;4.00;;;2.60;;
3995;SDS011;2012;49.794;9.722;2023-04-02T05:33:46;1.73;;;1.63;;
3995;SDS011;2012;49.794;9.722;2023-04-02T05:36:18;3.10;;;1.47;;
3995;SDS011;2012;49.794;9.722;2023-04-02T05:38:57;3.23;;;1.43;;
3995;SDS011;2012;49.794;9.722;2023-04-02T05:41:34;4.37;;;1.60;;
3995;SDS011;2012;49.794;9.722;2023-04-02T05:44:20;3.23;;;1.60;;
3995;SDS011;2012;49.794;9.722;2023-04-02T05:46:58;2.33;;;1.53;;
3995;SDS011;2012;49.794;9.722;2023-04-02T05:49:42;1.67;;;1.30;;
3995;SDS011;2012;49.794;9.722;2023-04-02T05:52:18;1.70;;;1.60;;
3995;SDS011;2012;49.794;9.722;2023-04-02T05:57:41;1.83;;;1.73;;
3995;SDS011;2012;49.794;9.722;2023-04-02T06:05:51;10.00;;;1.40;;
3995;SDS011;2012;49.794;9.722;2023-04-02T06:08:23;1.27;;;1.17;;
3995;SDS011;2012;49.794;9.722;2023-04-02T06:11:40;1.97;;;1.57;;
3995;SDS011;2012;49.794;9.722;2023-04-02T06:13:52;1.80;;;1.70;;
3995;SDS011;2012;49.794;9.722;2023-04-02T06:16:23;10.23;;;4.90;;
3995;SDS011;2012;49.794;9.722;2023-04-02T06:18:52;9.10;;;3.60;;
3995;SDS011;2012;49.794;9.722;2023-04-02T06:21:20;6.90;;;2.83;;
3995;SDS011;2012;49.794;9.722;2023-04-02T06:23:57;5.70;;;2.00;;
3995;SDS011;2012;49.794;9.722;2023-04-02T06:26:34;4.43;;;1.93;;
3995;SDS011;2012;49.794;9.722;2023-04-02T06:29:07;2.33;;;1.70;;
3995;SDS011;2012;49.794;9.722;2023-04-02T06:31:46;10.80;;;6.43;;
3995;SDS011;2012;49.794;9.722;2023-04-02T06:34:24;4.23;;;3.83;;
3995;SDS011;2012;49.794;9.722;2023-04-02T06:36:59;10.93;;;6.40;;
3995;SDS011;2012;49.794;9.722;2023-04-02T06:39:30;2.97;;;2.77;;
3995;SDS011;2012;49.794;9.722;2023-04-02T06:45:15;4.53;;;3.73;;
3995;SDS011;2012;49.794;9.722;2023-04-02T06:48:10;4.47;;;3.70;;
3995;SDS011;2012;49.794;9.722;2023-04-02T06:50:56;3.97;;;3.37;;
3995;SDS011;2012;49.794;9.722;2023-04-02T06:53:34;3.07;;;2.87;;
3995;SDS011;2012;49.794;9.722;2023-04-02T06:59:13;0.70;;;0.70;;
3995;SDS011;2012;49.794;9.722;2023-04-02T07:02:01;0.80;;;0.70;;
3995;SDS011;2012;49.794;9.722;2023-04-02T07:04:49;0.60;;;0.60;;
3995;SDS011;2012;49.794;9.722;2023-04-02T07:07:18;1.77;;;1.20;;
3995;SDS011;2012;49.794;9.722;2023-04-02T07:09:47;2.77;;;1.40;;
3995;SDS011;2012;49.794;9.722;2023-04-02T07:12:13;2.50;;;1.80;;
3995;SDS011;2012;49.794;9.722;2023-04-02T07:14:42;1.20;;;1.10;;
3995;SDS011;2012;49.794;9.722;2023-04-02T07:17:13;3.47;;;2.10;;
3995;SDS011;2012;49.794;9.722;2023-04-02T07:19:43;2.70;;;2.30;;
3995;SDS011;2012;49.794;9.722;2023-04-02T07:22:16;2.20;;;2.00;;
3995;SDS011;2012;49.794;9.722;2023-04-02T07:24:47;2.47;;;2.07;;
3995;SDS011;2012;49.794;9.722;2023-04-02T07:27:14;3.63;;;1.90;;
3995;SDS011;2012;49.794;9.722;2023-04-02T07:29:40;3.10;;;2.80;;
3995;SDS011;2012;49.794;9.722;2023-04-02T07:32:09;4.10;;;2.57;;
3995;SDS011;2012;49.794;9.722;2023-04-02T07:34:37;3.60;;;2.50;;
3995;SDS011;2012;49.794;9.722;2023-04-02T07:37:06;2.30;;;1.80;;
3995;SDS011;2012;49.794;9.722;2023-04-02T07:39:34;1.20;;;1.10;;
3995;SDS011;2012;49.794;9.722;2023-04-02T07:42:04;1.10;;;1.00;;
3995;SDS011;2012;49.794;9.722;2023-04-02T07:44:31;1.00;;;0.90;;
3995;SDS011;2012;49.794;9.722;2023-04-02T07:46:58;0.87;;;0.87;;
3995;SDS011;2012;49.794;9.722;2023-04-02T07:49:25;0.90;;;0.80;;
3995;SDS011;2012;49.794;9.722;2023-04-02T07:51:53;0.70;;;0.70;;
3995;SDS011;2012;49.794;9.722;2023-04-02T07:54:20;1.53;;;0.80;;
3995;SDS011;2012;49.794;9.722;2023-04-02T07:56:47;1.90;;;0.90;;
3995;SDS011;2012;49.794;9.722;2023-04-02T07:59:13;1.30;;;1.20;;
3995;SDS011;2012;49.794;9.722;2023-04-02T08:01:40;1.30;;;0.90;;
3995;SDS011;2012;49.794;9.722;2023-04-02T08:04:14;0.70;;;0.60;;
3995;SDS011;2012;49.794;9.722;2023-04-02T08:06:46;1.17;;;1.00;;
3995;SDS011;2012;49.794;9.722;2023-04-02T08:09:14;0.80;;;0.80;;
3995;SDS011;2012;49.794;9.722;2023-04-02T08:11:41;0.90;;;0.80;;
3995;SDS011;2012;49.794;9.722;2023-04-02T08:14:08;1.83;;;0.90;;
3995;SDS011;2012;49.794;9.722;2023-04-02T08:16:46;1.50;;;1.40;;
3995;SDS011;2012;49.794;9.722;2023-04-02T08:19:18;0.97;;;0.80;;
3995;SDS011;2012;49.794;9.722;2023-04-02T08:21:46;1.10;;;1.00;;
3995;SDS011;2012;49.794;9.722;2023-04-02T08:24:16;9.27;;;4.70;;
3995;SDS011;2012;49.794;9.722;2023-04-02T08:26:44;8.20;;;5.20;;
3995;SDS011;2012;49.794;9.722;2023-04-02T08:29:12;2.23;;;1.87;;
3995;SDS011;2012;49.794;9.722;2023-04-02T08:31:39;1.57;;;1.30;;
3995;SDS011;2012;49.794;9.722;2023-04-02T08:34:06;1.13;;;1.03;;
3995;SDS011;2012;49.794;9.722;2023-04-02T08:36:35;0.80;;;0.80;;
3995;SDS011;2012;49.794;9.722;2023-04-02T08:39:04;1.00;;;0.80;;
3995;SDS011;2012;49.794;9.722;2023-04-02T08:41:37;0.80;;;0.80;;
3995;SDS011;2012;49.794;9.722;2023-04-02T08:44:21;1.97;;;0.90;;
3995;SDS011;2012;49.794;9.722;2023-04-02T08:47:05;1.80;;;0.80;;
3995;SDS011;2012;49.794;9.722;2023-04-02T08:49:36;1.10;;;0.70;;
3995;SDS011;2012;49.794;9.722;2023-04-02T08:52:04;0.80;;;0.80;;
3995;SDS011;2012;49.794;9.722;2023-04-02T08:54:34;0.70;;;0.70;;
3995;SDS011;2012;49.794;9.722;2023-04-02T08:59:53;0.70;;;0.70;;
3995;SDS011;2012;49.794;9.722;2023-04-02T09:02:48;2.40;;;0.70;;
3995;SDS011;2012;49.794;9.722;2023-04-02T09:05:29;0.70;;;0.70;;
3995;SDS011;2012;49.794;9.722;2023-04-02T09:08:00;0.77;;;0.77;;
3995;SDS011;2012;49.794;9.722;2023-04-02T09:10:38;3.43;;;1.47;;
3995;SDS011;2012;49.794;9.722;2023-04-02T09:13:22;6.80;;;1.60;;
3995;SDS011;2012;49.794;9.722;2023-04-02T09:16:02;1.40;;;1.30;;
3995;SDS011;2012;49.794;9.722;2023-04-02T09:18:36;1.20;;;0.90;;
3995;SDS011;2012;49.794;9.722;2023-04-02T09:23:48;0.90;;;0.70;;
3995;SDS011;2012;49.794;9.722;2023-04-02T09:26:25;1.30;;;1.20;;
3995;SDS011;2012;49.794;9.722;2023-04-02T09:32:01;2.20;;;1.00;;
3995;SDS011;2012;49.794;9.722;2023-04-02T09:34:49;1.03;;;0.87;;
3995;SDS011;2012;49.794;9.722;2023-04-02T09:38:08;0.80;;;0.80;;
3995;SDS011;2012;49.794;9.722;2023-04-02T09:40:42;0.80;;;0.80;;
3995;SDS011;2012;49.794;9.722;2023-04-02T09:43:15;1.10;;;1.00;;
3995;SDS011;2012;49.794;9.722;2023-04-02T09:45:43;1.37;;;1.27;;
3995;SDS011;2012;49.794;9.722;2023-04-02T09:48:32;0.80;;;0.80;;
3995;SDS011;2012;49.794;9.722;2023-04-02T09:53:39;0.80;;;0.80;;
3995;SDS011;2012;49.794;9.722;2023-04-02T09:56:20;1.40;;;1.30;;
3995;SDS011;2012;49.794;9.722;2023-04-02T10:01:32;0.80;;;0.80;;
3995;SDS011;2012;49.794;9.722;2023-04-02T10:04:02;0.70;;;0.70;;
3995;SDS011;2012;49.794;9.722;2023-04-02T10:06:30;0.60;;;0.60;;
3995;SDS011;2012;49.794;9.722;2023-04-02T10:09:18;1.00;;;0.90;;
3995;SDS011;2012;49.794;9.722;2023-04-02T10:11:51;1.63;;;1.27;;
3995;SDS011;2012;49.794;9.722;2023-04-02T10:14:23;1.67;;;1.00;;
3995;SDS011;2012;49.794;9.722;2023-04-02T10:17:04;0.93;;;0.90;;
3995;SDS011;2012;49.794;9.722;2023-04-02T10:19:52;1.37;;;1.07;;
3995;SDS011;2012;49.794;9.722;2023-04-02T10:22:23;3.70;;;0.90;;
3995;SDS011;2012;49.794;9.722;2023-04-02T10:24:53;0.80;;;0.80;;
3995;SDS011;2012;49.794;9.722;2023-04-02T10:30:23;1.30;;;1.20;;
3995;SDS011;2012;49.794;9.722;2023-04-02T10:33:15;2.60;;;1.30;;
3995;SDS011;2012;49.794;9.722;2023-04-02T10:39:12;3.00;;;1.30;;
3995;SDS011;2012;49.794;9.722;2023-04-02T10:54:45;1.70;;;1.47;;
3995;SDS011;2012;49.794;9.722;2023-04-02T10:57:29;3.30;;;2.20;;
3995;SDS011;2012;49.794;9.722;2023-04-02T11:00:12;3.67;;;2.70;;
3995;SDS011;2012;49.794;9.722;2023-04-02T11:05:49;1.27;;;1.17;;
3995;SDS011;2012;49.794;9.722;2023-04-02T11:08:25;1.20;;;1.10;;
3995;SDS011;2012;49.794;9.722;2023-04-02T11:11:00;1.10;;;1.00;;
3995;SDS011;2012;49.794;9.722;2023-04-02T11:13:38;0.90;;;0.83;;
3995;SDS011;2012;49.794;9.722;2023-04-02T11:16:11;0.70;;;0.70;;
3995;SDS011;2012;49.794;9.722;2023-04-02T11:18:42;2.23;;;2.03;;
3995;SDS011;2012;49.794;9.722;2023-04-02T11:23:57;2.57;;;2.40;;
3995;SDS011;2012;49.794;9.722;2023-04-02T11:26:27;2.53;;;2.37;;
3995;SDS011;2012;49.794;9.722;2023-04-02T11:29:03;1.03;;;0.93;;
3995;SDS011;2012;49.794;9.722;2023-04-02T11:31:40;1.30;;;1.20;;
3995;SDS011;2012;49.794;9.722;2023-04-02T11:34:13;0.80;;;0.80;;
3995;SDS011;2012;49.794;9.722;2023-04-02T11:44:44;0.70;;;0.63;;
3995;SDS011;2012;49.794;9.722;2023-04-02T11:47:15;1.30;;;0.80;;
3995;SDS011;2012;49.794;9.722;2023-04-02T11:58:35;1.20;;;0.80;;
3995;SDS011;2012;49.794;9.722;2023-04-02T12:09:43;1.17;;;0.90;;
3995;SDS011;2012;49.794;9.722;2023-04-02T12:12:16;2.80;;;1.10;;
3995;SDS011;2012;49.794;9.722;2023-04-02T12:14:57;1.73;;;1.20;;
3995;SDS011;2012;49.794;9.722;2023-04-02T12:17:31;1.60;;;1.40;;
3995;SDS011;2012;49.794;9.722;2023-04-02T12:22:37;1.07;;;0.97;;
3995;SDS011;2012;49.794;9.722;2023-04-02T12:30:44;1.10;;;1.00;;
3995;SDS011;2012;49.794;9.722;2023-04-02T12:33:13;1.30;;;1.20;;
3995;SDS011;2012;49.794;9.722;2023-04-02T12:35:40;1.37;;;1.20;;
3995;SDS011;2012;49.794;9.722;2023-04-02T12:38:17;1.23;;;1.00;;
3995;SDS011;2012;49.794;9.722;2023-04-02T12:40:53;1.50;;;1.40;;
3995;SDS011;2012;49.794;9.722;2023-04-02T12:43:32;1.20;;;1.10;;
3995;SDS011;2012;49.794;9.722;2023-04-02T12:46:01;1.20;;;1.10;;
3995;SDS011;2012;49.794;9.722;2023-04-02T12:48:31;0.80;;;0.80;;
3995;SDS011;2012;49.794;9.722;2023-04-02T12:51:00;1.13;;;1.03;;
3995;SDS011;2012;49.794;9.722;2023-04-02T12:53:33;1.00;;;0.97;;
3995;SDS011;2012;49.794;9.722;2023-04-02T12:56:06;1.30;;;0.90;;
3995;SDS011;2012;49.794;9.722;2023-04-02T12:58:36;1.20;;;1.10;;
3995;SDS011;2012;49.794;9.722;2023-04-02T13:01:13;1.30;;;1.20;;
3995;SDS011;2012;49.794;9.722;2023-04-02T13:06:31;1.87;;;1.10;;
3995;SDS011;2012;49.794;9.722;2023-04-02T13:09:02;1.53;;;1.30;;
3995;SDS011;2012;49.794;9.722;2023-04-02T13:11:35;4.77;;;1.33;;
3995;SDS011;2012;49.794;9.722;2023-04-02T13:14:04;4.10;;;1.53;;
3995;SDS011;2012;49.794;9.722;2023-04-02T13:16:34;1.60;;;1.50;;
3995;SDS011;2012;49.794;9.722;2023-04-02T13:19:22;3.30;;;1.30;;
3995;SDS011;2012;49.794;9.722;2023-04-02T13:21:53;1.30;;;1.20;;
3995;SDS011;2012;49.794;9.722;2023-04-02T13:24:22;1.30;;;1.20;;
3995;SDS011;2012;49.794;9.722;2023-04-02T13:26:54;1.60;;;1.50;;
3995;SDS011;2012;49.794;9.722;2023-04-02T13:31:58;2.03;;;1.50;;
3995;SDS011;2012;49.794;9.722;2023-04-02T13:34:26;1.40;;;1.30;;
3995;SDS011;2012;49.794;9.722;2023-04-02T13:36:54;4.00;;;1.43;;
3995;SDS011;2012;49.794;9.722;2023-04-02T13:39:22;1.20;;;1.17;;
3995;SDS011;2012;49.794;9.722;2023-04-02T13:41:56;1.00;;;1.00;;
3995;SDS011;2012;49.794;9.722;2023-04-02T13:44:24;1.20;;;1.10;;
3995;SDS011;2012;49.794;9.722;2023-04-02T13:46:56;1.43;;;1.33;;
3995;SDS011;2012;49.794;9.722;2023-04-02T13:49:24;1.47;;;1.17;;
3995;SDS011;2012;49.794;9.722;2023-04-02T13:51:52;1.03;;;0.90;;
3995;SDS011;2012;49.794;9.722;2023-04-02T13:56:53;1.10;;;1.00;;
3995;SDS011;2012;49.794;9.722;2023-04-02T13:59:21;1.37;;;1.20;;
3995;SDS011;2012;49.794;9.722;2023-04-02T14:01:48;1.50;;;1.40;;
3995;SDS011;2012;49.794;9.722;2023-04-02T14:04:20;0.93;;;0.90;;
3995;SDS011;2012;49.794;9.722;2023-04-02T14:09:51;1.30;;;1.20;;
3995;SDS011;2012;49.794;9.722;2023-04-02T14:15:30;1.13;;;1.03;;
3995;SDS011;2012;49.794;9.722;2023-04-02T14:23:43;1.20;;;1.10;;
3995;SDS011;2012;49.794;9.722;2023-04-02T14:29:24;2.50;;;1.57;;
3995;SDS011;2012;49.794;9.722;2023-04-02T14:32:14;1.40;;;1.30;;
3995;SDS011;2012;49.794;9.722;2023-04-02T14:43:16;2.80;;;1.50;;
3995;SDS011;2012;49.794;9.722;2023-04-02T14:45:59;2.37;;;2.00;;
3995;SDS011;2012;49.794;9.722;2023-04-02T14:51:27;1.60;;;1.50;;
3995;SDS011;2012;49.794;9.722;2023-04-02T14:57:12;1.60;;;1.50;;
3995;SDS011;2012;49.794;9.722;2023-04-02T14:59:51;2.10;;;2.00;;
3995;SDS011;2012;49.794;9.722;2023-04-02T15:02:21;3.27;;;2.93;;
3995;SDS011;2012;49.794;9.722;2023-04-02T15:05:12;2.40;;;1.90;;
3995;SDS011;2012;49.794;9.722;2023-04-02T15:07:51;2.37;;;2.00;;
3995;SDS011;2012;49.794;9.722;2023-04-02T15:10:32;1.80;;;1.70;;
3995;SDS011;2012;49.794;9.722;2023-04-02T15:13:07;2.27;;;2.07;;
3995;SDS011;2012;49.794;9.722;2023-04-02T15:15:48;2.23;;;1.80;;
3995;SDS011;2012;49.794;9.722;2023-04-02T15:18:28;2.00;;;1.63;;
3995;SDS011;2012;49.794;9.722;2023-04-02T15:21:09;2.40;;;2.20;;
3995;SDS011;2012;49.794;9.722;2023-04-02T15:24:03;1.67;;;1.57;;
3995;SDS011;2012;49.794;9.722;2023-04-02T15:30:11;5.37;;;2.67;;
3995;SDS011;2012;49.794;9.722;2023-04-02T15:32:50;3.17;;;1.93;;
3995;SDS011;2012;49.794;9.722;2023-04-02T15:35:29;2.37;;;2.17;;
3995;SDS011;2012;49.794;9.722;2023-04-02T15:38:17;2.60;;;2.40;;
3995;SDS011;2012;49.794;9.722;2023-04-02T15:40:59;4.27;;;2.10;;
3995;SDS011;2012;49.794;9.722;2023-04-02T15:43:43;2.50;;;2.30;;
3995;SDS011;2012;49.794;9.722;2023-04-02T15:46:16;3.37;;;2.10;;
3995;SDS011;2012;49.794;9.722;2023-04-02T15:49:12;2.03;;;1.93;;
3995;SDS011;2012;49.794;9.722;2023-04-02T15:51:50;2.00;;;1.90;;
3995;SDS011;2012;49.794;9.722;2023-04-02T16:02:57;2.40;;;2.20;;
3995;SDS011;2012;49.794;9.722;2023-04-02T16:05:49;2.83;;;2.40;;
3995;SDS011;2012;49.794;9.722;2023-04-02T16:08:39;3.03;;;2.20;;
3995;SDS011;2012;49.794;9.722;2023-04-02T16:11:13;2.70;;;2.30;;
3995;SDS011;2012;49.794;9.722;2023-04-02T16:13:41;3.10;;;2.60;;
3995;SDS011;2012;49.794;9.722;2023-04-02T16:16:13;2.00;;;1.90;;
3995;SDS011;2012;49.794;9.722;2023-04-02T16:19:02;1.77;;;1.63;;
3995;SDS011;2012;49.794;9.722;2023-04-02T16:21:52;2.40;;;2.27;;
3995;SDS011;2012;49.794;9.722;2023-04-02T16:24:27;4.00;;;2.90;;
3995;SDS011;2012;49.794;9.722;2023-04-02T16:27:17;3.70;;;2.90;;
3995;SDS011;2012;49.794;9.722;2023-04-02T16:33:00;3.23;;;2.90;;
3995;SDS011;2012;49.794;9.722;2023-04-02T16:52:51;6.23;;;1.90;;
3995;SDS011;2012;49.794;9.722;2023-04-02T16:55:53;3.00;;;2.00;;
3995;SDS011;2012;49.794;9.722;2023-04-02T17:07:08;1.80;;;1.70;;
3995;SDS011;2012;49.794;9.722;2023-04-02T17:09:47;1.87;;;1.73;;
3995;SDS011;2012;49.794;9.722;2023-04-02T17:12:28;4.60;;;1.90;;
3995;SDS011;2012;49.794;9.722;2023-04-02T17:17:57;3.00;;;1.80;;
3995;SDS011;2012;49.794;9.722;2023-04-02T17:20:26;3.43;;;1.50;;
3995;SDS011;2012;49.794;9.722;2023-04-02T17:22:53;1.90;;;1.80;;
3995;SDS011;2012;49.794;9.722;2023-04-02T17:25:29;3.40;;;1.70;;
3995;SDS011;2012;49.794;9.722;2023-04-02T17:27:59;2.50;;;1.80;;
3995;SDS011;2012;49.794;9.722;2023-04-02T17:30:35;4.77;;;2.40;;
3995;SDS011;2012;49.794;9.722;2023-04-02T17:33:14;2.60;;;1.90;;
3995;SDS011;2012;49.794;9.722;2023-04-02T17:39:09;2.33;;;1.97;;
3995;SDS011;2012;49.794;9.722;2023-04-02T17:47:19;2.70;;;2.13;;
3995;SDS011;2012;49.794;9.722;2023-04-02T17:49:51;11.23;;;4.97;;
3995;SDS011;2012;49.794;9.722;2023-04-02T17:52:25;3.50;;;2.40;;
3995;SDS011;2012;49.794;9.722;2023-04-02T18:00:56;2.57;;;2.37;;
3995;SDS011;2012;49.794;9.722;2023-04-02T18:06:15;5.03;;;2.77;;
3995;SDS011;2012;49.794;9.722;2023-04-02T18:11:41;6.30;;;2.77;;
3995;SDS011;2012;49.794;9.722;2023-04-02T18:17:16;2.87;;;1.90;;
3995;SDS011;2012;49.794;9.722;2023-04-02T18:19:52;2.37;;;2.17;;
3995;SDS011;2012;49.794;9.722;2023-04-02T18:22:44;3.17;;;1.93;;
3995;SDS011;2012;49.794;9.722;2023-04-02T18:34:15;2.03;;;1.93;;
3995;SDS011;2012;49.794;9.722;2023-04-02T18:36:39;2.80;;;1.80;;
3995;SDS011;2012;49.794;9.722;2023-04-02T18:51:15;6.00;;;1.83;;
3995;SDS011;2012;49.794;9.722;2023-04-02T18:53:52;1.63;;;1.20;;
3995;SDS011;2012;49.794;9.722;2023-04-02T18:56:28;4.80;;;2.27;;
3995;SDS011;2012;49.794;9.722;2023-04-02T18:59:05;2.10;;;1.83;;
3995;SDS011;2012;49.794;9.722;2023-04-02T19:01:54;2.40;;;2.20;;
3995;SDS011;2012;49.794;9.722;2023-04-02T19:04:26;3.97;;;2.27;;
3995;SDS011;2012;49.794;9.722;2023-04-02T19:06:58;2.70;;;2.23;;
3995;SDS011;2012;49.794;9.722;2023-04-02T19:09:37;2.80;;;2.20;;
3995;SDS011;2012;49.794;9.722;2023-04-02T19:12:26;1.67;;;1.47;;
3995;SDS011;2012;49.794;9.722;2023-04-02T19:14:57;2.10;;;1.90;;
3995;SDS011;2012;49.794;9.722;2023-04-02T19:20:13;3.63;;;1.93;;
3995;SDS011;2012;49.794;9.722;2023-04-02T19:26:07;2.30;;;2.10;;
3995;SDS011;2012;49.794;9.722;2023-04-02T19:28:48;4.30;;;2.27;;
3995;SDS011;2012;49.794;9.722;2023-04-02T19:31:47;4.13;;;1.90;;
3995;SDS011;2012;49.794;9.722;2023-04-02T19:37:09;5.30;;;2.20;;
3995;SDS011;2012;49.794;9.722;2023-04-02T19:42:41;3.70;;;2.40;;
3995;SDS011;2012;49.794;9.722;2023-04-02T19:45:15;3.40;;;1.93;;
3995;SDS011;2012;49.794;9.722;2023-04-02T19:47:55;2.23;;;2.03;;
3995;SDS011;2012;49.794;9.722;2023-04-02T19:50:23;9.53;;;3.50;;
3995;SDS011;2012;49.794;9.722;2023-04-02T19:52:50;4.60;;;2.30;;
3995;SDS011;2012;49.794;9.722;2023-04-02T19:55:17;2.17;;;1.93;;
3995;SDS011;2012;49.794;9.722;2023-04-02T19:57:44;4.00;;;1.83;;
3995;SDS011;2012;49.794;9.722;2023-04-02T20:00:12;2.43;;;1.97;;
3995;SDS011;2012;49.794;9.722;2023-04-02T20:02:39;3.03;;;2.17;;
3995;SDS011;2012;49.794;9.722;2023-04-02T20:05:06;2.03;;;1.77;;
3995;SDS011;2012;49.794;9.722;2023-04-02T20:07:33;2.50;;;1.80;;
3995;SDS011;2012;49.794;9.722;2023-04-02T20:10:00;3.20;;;1.77;;
3995;SDS011;2012;49.794;9.722;2023-04-02T20:12:27;2.10;;;1.90;;
3995;SDS011;2012;49.794;9.722;2023-04-02T20:14:54;3.07;;;2.50;;
3995;SDS011;2012;49.794;9.722;2023-04-02T20:17:21;4.03;;;1.60;;
3995;SDS011;2012;49.794;9.722;2023-04-02T20:19:48;5.47;;;2.10;;
3995;SDS011;2012;49.794;9.722;2023-04-02T20:22:14;3.10;;;1.63;;
3995;SDS011;2012;49.794;9.722;2023-04-02T20:24:41;2.80;;;1.70;;
3995;SDS011;2012;49.794;9.722;2023-04-02T20:27:08;3.23;;;1.80;;
3995;SDS011;2012;49.794;9.722;2023-04-02T20:29:35;4.87;;;2.50;;
3995;SDS011;2012;49.794;9.722;2023-04-02T20:32:02;3.83;;;2.07;;
3995;SDS011;2012;49.794;9.722;2023-04-02T20:34:29;2.97;;;2.10;;
3995;SDS011;2012;49.794;9.722;2023-04-02T20:36:56;4.10;;;1.37;;
3995;SDS011;2012;49.794;9.722;2023-04-02T20:39:23;4.43;;;1.60;;
3995;SDS011;2012;49.794;9.722;2023-04-02T20:41:50;1.50;;;1.40;;
3995;SDS011;2012;49.794;9.722;2023-04-02T20:44:16;4.30;;;1.57;;
3995;SDS011;2012;49.794;9.722;2023-04-02T20:46:44;1.93;;;1.83;;